createdAt,value
2023-02-15T00:01:39.084Z,144.25
2023-02-15T00:04:10.518Z,129.67
2023-02-15T00:06:40.198Z,122.00
2023-02-15T00:09:12.375Z,122.33
2023-02-15T00:11:45.039Z,118.25
2023-02-15T00:14:21.327Z,108.00
2023-02-15T00:16:54.267Z,122.00
2023-02-15T00:19:24.111Z,119.67
2023-02-15T00:21:53.834Z,108.00
2023-02-15T00:24:23.654Z,116.67
2023-02-15T00:26:53.418Z,111.00
2023-02-15T00:29:23.508Z,109.67
2023-02-15T00:31:53.631Z,126.00
2023-02-15T00:34:28.220Z,133.67
2023-02-15T00:36:58.283Z,112.67
2023-02-15T00:39:28.426Z,115.00
2023-02-15T00:41:58.066Z,117.67
2023-02-15T00:44:27.700Z,111.33
2023-02-15T00:46:57.375Z,124.33
2023-02-15T00:49:27.130Z,137.00
2023-02-15T00:51:56.865Z,121.33
2023-02-15T00:54:26.598Z,137.67
2023-02-15T00:56:56.336Z,108.00
2023-02-15T00:59:25.983Z,117.00
2023-02-15T01:01:55.641Z,115.67
2023-02-15T01:04:25.369Z,112.00
2023-02-15T01:06:54.999Z,122.33
2023-02-15T01:09:24.674Z,121.00
2023-02-15T01:11:54.448Z,115.00
2023-02-15T01:14:24.403Z,114.00
2023-02-15T01:16:54.100Z,109.67
2023-02-15T01:19:23.755Z,119.67
2023-02-15T01:21:53.393Z,116.67
2023-02-15T01:24:23.062Z,121.33
2023-02-15T01:26:52.751Z,127.33
2023-02-15T01:29:22.548Z,119.33
2023-02-15T01:31:52.545Z,127.00
2023-02-15T01:34:22.193Z,127.00
2023-02-15T01:36:51.845Z,126.00
2023-02-15T01:39:21.514Z,103.67
2023-02-15T01:41:52.200Z,132.00
2023-02-15T01:44:49.828Z,125.00
2023-02-15T01:47:54.393Z,114.67
2023-02-15T01:50:43.208Z,102.00
2023-02-15T01:53:27.152Z,133.00
2023-02-15T01:56:26.266Z,114.67
2023-02-15T01:58:59.725Z,119.67
2023-02-15T02:01:29.964Z,127.00
2023-02-15T02:04:39.977Z,117.00
2023-02-15T02:07:11.649Z,116.00
2023-02-15T02:09:41.578Z,110.67
2023-02-15T02:12:11.888Z,111.33
2023-02-15T02:14:42.918Z,108.33
2023-02-15T02:17:40.623Z,80.33
2023-02-15T02:20:46.385Z,108.00
2023-02-15T02:23:34.534Z,117.33
2023-02-15T02:26:58.413Z,112.33
2023-02-15T02:30:27.075Z,108.33
2023-02-15T02:33:29.896Z,107.00
2023-02-15T02:36:21.608Z,115.00
2023-02-15T02:39:05.926Z,104.33
2023-02-15T02:42:09.657Z,114.33
2023-02-15T02:44:55.344Z,103.67
2023-02-15T02:47:40.047Z,105.00
2023-02-15T02:50:22.893Z,41.00
2023-02-15T02:52:57.027Z,103.67
2023-02-15T02:55:50.158Z,108.67
2023-02-15T02:58:43.922Z,157.00
2023-02-15T03:01:29.405Z,116.00
2023-02-15T03:04:11.570Z,135.67
2023-02-15T03:06:58.813Z,114.67
2023-02-15T03:09:45.636Z,117.00
2023-02-15T03:12:34.190Z,114.67
2023-02-15T03:15:06.801Z,115.00
2023-02-15T03:17:44.059Z,109.67
2023-02-15T03:20:32.994Z,106.00
2023-02-15T03:23:15.136Z,107.00
2023-02-15T03:26:02.423Z,111.67
2023-02-15T03:28:46.641Z,112.33
2023-02-15T03:31:19.168Z,101.67
2023-02-15T03:34:01.274Z,103.67
2023-02-15T03:36:52.005Z,99.33
2023-02-15T03:39:45.974Z,102.33
2023-02-15T03:42:33.319Z,100.00
2023-02-15T03:45:16.823Z,100.33
2023-02-15T03:47:52.037Z,90.00
2023-02-15T03:50:57.652Z,91.00
2023-02-15T03:53:28.367Z,101.33
2023-02-15T03:55:58.098Z,101.33
2023-02-15T03:58:46.284Z,91.33
2023-02-15T04:01:52.045Z,100.00
2023-02-15T04:04:28.104Z,99.00
2023-02-15T04:06:58.027Z,104.00
2023-02-15T04:09:45.917Z,107.67
2023-02-15T04:12:15.629Z,105.00
2023-02-15T04:15:04.013Z,114.33
2023-02-15T04:17:33.742Z,106.67
2023-02-15T04:20:21.866Z,112.00
2023-02-15T04:23:09.673Z,110.00
2023-02-15T04:25:39.295Z,105.33
2023-02-15T04:28:09.215Z,105.00
2023-02-15T04:30:38.849Z,105.33
2023-02-15T04:33:08.403Z,102.33
2023-02-15T04:35:38.003Z,106.33
2023-02-15T04:38:07.685Z,109.00
2023-02-15T04:40:37.282Z,105.67
2023-02-15T04:43:06.861Z,112.67
2023-02-15T04:45:36.571Z,119.33
2023-02-15T04:48:06.237Z,114.00
2023-02-15T04:50:35.844Z,113.67
2023-02-15T04:53:05.449Z,114.67
2023-02-15T04:55:35.152Z,114.33
2023-02-15T04:58:04.820Z,113.33
2023-02-15T05:00:34.583Z,112.33
2023-02-15T05:03:04.581Z,114.00
2023-02-15T05:05:34.134Z,107.67
2023-02-15T05:08:03.827Z,109.00
2023-02-15T05:10:33.439Z,108.00
2023-02-15T05:13:03.022Z,105.33
2023-02-15T05:15:32.777Z,106.67
2023-02-15T05:18:02.658Z,101.67
2023-02-15T05:20:32.305Z,111.00
2023-02-15T05:23:01.953Z,109.00
2023-02-15T05:25:49.910Z,108.00
2023-02-15T05:28:22.540Z,114.67
2023-02-15T05:31:05.937Z,118.33
2023-02-15T05:33:36.265Z,125.67
2023-02-15T05:36:08.014Z,144.00
2023-02-15T05:38:38.931Z,125.00
2023-02-15T05:41:11.913Z,118.33
2023-02-15T05:43:41.785Z,113.67
2023-02-15T05:46:12.356Z,114.00
2023-02-15T05:48:42.073Z,133.00
2023-02-15T05:51:15.096Z,138.67
2023-02-15T05:53:44.860Z,116.00
2023-02-15T05:56:14.664Z,127.33
2023-02-15T05:58:44.524Z,131.00
2023-02-15T06:01:18.688Z,115.67
2023-02-15T06:03:48.436Z,116.00
2023-02-15T06:06:18.382Z,114.33
2023-02-15T06:08:48.059Z,119.00
2023-02-15T06:11:17.789Z,112.00
2023-02-15T06:13:47.519Z,125.67
2023-02-15T06:16:17.338Z,112.33
2023-02-15T06:18:47.092Z,117.67
2023-02-15T06:21:16.865Z,105.00
2023-02-15T06:23:45.828Z,92.00
2023-02-15T06:26:15.475Z,116.33
2023-02-15T06:28:45.180Z,138.00
2023-02-15T06:31:14.898Z,121.67
2023-02-15T06:33:44.614Z,123.33
2023-02-15T06:36:14.309Z,116.00
2023-02-15T06:38:44.798Z,137.75
2023-02-15T06:41:14.466Z,118.67
2023-02-15T06:43:44.233Z,120.00
2023-02-15T06:46:13.953Z,115.00
2023-02-15T06:48:44.683Z,121.00
2023-02-15T06:51:15.272Z,129.00
2023-02-15T06:53:45.041Z,100.33
2023-02-15T06:56:14.748Z,100.67
2023-02-15T06:58:46.941Z,98.67
2023-02-15T07:01:17.036Z,99.33
2023-02-15T07:03:46.824Z,101.67
2023-02-15T07:06:16.503Z,106.00
2023-02-15T07:08:46.193Z,113.33
2023-02-15T07:11:34.290Z,106.00
2023-02-15T07:14:03.816Z,99.00
2023-02-15T07:16:31.628Z,111.50
2023-02-15T07:19:01.259Z,102.00
2023-02-15T07:21:29.175Z,136.00
2023-02-15T07:23:59.959Z,102.67
2023-02-15T07:26:29.930Z,105.00
2023-02-15T07:28:59.559Z,93.00
2023-02-15T07:31:29.593Z,107.67
2023-02-15T07:33:59.155Z,102.67
2023-02-15T07:36:28.840Z,92.67
2023-02-15T07:38:58.428Z,89.33
2023-02-15T07:41:27.016Z,88.33
2023-02-15T07:43:56.628Z,92.00
2023-02-15T07:46:26.233Z,93.00
2023-02-15T07:48:56.867Z,122.00
2023-02-15T07:51:27.301Z,114.25
2023-02-15T07:53:57.120Z,96.67
2023-02-15T07:56:26.825Z,94.33
2023-02-15T07:58:56.911Z,102.00
2023-02-15T08:01:39.479Z,95.33
2023-02-15T08:04:12.063Z,95.67
2023-02-15T08:06:41.770Z,93.33
2023-02-15T08:09:16.166Z,100.67
2023-02-15T08:11:44.053Z,78.50
2023-02-15T08:14:18.737Z,90.33
2023-02-15T08:17:00.878Z,96.67
2023-02-15T08:19:33.693Z,91.67
2023-02-15T08:22:08.012Z,90.67
2023-02-15T08:24:38.999Z,95.00
2023-02-15T08:27:12.087Z,100.67
2023-02-15T08:29:43.366Z,92.75
2023-02-15T08:32:14.954Z,103.00
2023-02-15T08:34:44.679Z,106.67
2023-02-15T08:37:14.273Z,101.67
2023-02-15T08:39:44.562Z,89.67
2023-02-15T08:42:14.804Z,95.33
2023-02-15T08:44:44.310Z,82.67
2023-02-15T08:47:14.114Z,84.67
2023-02-15T08:49:42.821Z,81.00
2023-02-15T08:52:12.368Z,74.33
2023-02-15T08:54:41.882Z,75.33
2023-02-15T08:57:11.484Z,74.00
2023-02-15T08:59:40.951Z,75.00
2023-02-15T09:02:12.409Z,78.75
2023-02-15T09:04:42.007Z,74.33
2023-02-15T09:07:11.416Z,65.33
2023-02-15T09:09:40.892Z,64.67
2023-02-15T09:12:10.412Z,63.00
2023-02-15T09:14:39.878Z,59.33
2023-02-15T09:17:09.360Z,62.67
2023-02-15T09:19:38.840Z,69.67
2023-02-15T09:22:08.303Z,62.00
2023-02-15T09:24:37.087Z,50.00
2023-02-15T09:27:06.831Z,61.33
2023-02-15T09:29:35.636Z,57.00
2023-02-15T09:32:05.274Z,56.50
2023-02-15T09:34:35.169Z,52.50
2023-02-15T09:37:07.645Z,59.33
2023-02-15T09:39:44.094Z,61.00
2023-02-15T09:43:09.126Z,67.00
2023-02-15T09:46:40.359Z,64.67
2023-02-15T09:50:15.300Z,59.33
2023-02-15T09:53:19.589Z,58.67
2023-02-15T09:56:46.792Z,59.33
2023-02-15T09:59:36.565Z,60.67
2023-02-15T10:03:12.972Z,62.67
2023-02-15T10:06:32.434Z,64.00
2023-02-15T10:09:31.651Z,56.33
2023-02-15T10:12:56.003Z,54.00
2023-02-15T10:15:54.938Z,59.67
2023-02-15T10:19:06.432Z,48.00
2023-02-15T10:21:47.818Z,49.00
2023-02-15T10:24:26.156Z,49.50
2023-02-15T10:27:16.637Z,52.00
2023-02-15T10:29:57.381Z,47.00
2023-02-15T10:32:30.335Z,55.50
2023-02-15T10:35:15.341Z,57.00
2023-02-15T10:38:26.950Z,55.67
2023-02-15T10:41:09.717Z,55.33
2023-02-15T10:44:44.635Z,65.00
2023-02-15T10:47:49.759Z,57.00
2023-02-15T10:50:57.376Z,62.00
2023-02-15T10:54:09.201Z,52.00
2023-02-15T10:56:54.950Z,51.50
2023-02-15T10:59:50.360Z,46.50
2023-02-15T11:03:18.830Z,53.00
2023-02-15T11:06:14.616Z,59.00
2023-02-15T11:08:52.065Z,55.00
2023-02-15T11:11:36.183Z,57.33
2023-02-15T11:14:19.213Z,52.67
2023-02-15T11:16:54.282Z,54.50
2023-02-15T11:19:33.569Z,56.33
2023-02-15T11:22:07.621Z,51.50
2023-02-15T11:24:47.532Z,57.00
2023-02-15T11:27:34.304Z,57.33
2023-02-15T11:30:16.725Z,63.67
2023-02-15T11:32:52.614Z,57.33
2023-02-15T11:35:38.488Z,58.00
2023-02-15T11:38:21.687Z,62.00
2023-02-15T11:41:25.418Z,48.67
2023-02-15T11:44:08.038Z,53.00
2023-02-15T11:46:38.884Z,53.50
2023-02-15T11:49:38.923Z,59.33
2023-02-15T11:52:15.653Z,54.33
2023-02-15T11:54:51.559Z,51.00
2023-02-15T11:57:39.144Z,51.00
2023-02-15T12:00:37.290Z,56.33
2023-02-15T12:03:24.550Z,55.33
2023-02-15T12:06:03.821Z,59.00
2023-02-15T12:08:43.460Z,60.33
2023-02-15T12:11:39.498Z,57.00
2023-02-15T12:14:16.941Z,54.00
2023-02-15T12:16:57.033Z,52.00
2023-02-15T12:19:39.117Z,58.67
2023-02-15T12:22:26.334Z,55.67
2023-02-15T12:25:01.865Z,53.33
2023-02-15T12:27:34.605Z,53.00
2023-02-15T12:30:36.534Z,55.67
2023-02-15T12:33:46.623Z,51.67
2023-02-15T12:36:29.090Z,57.00
2023-02-15T12:39:13.598Z,63.00
2023-02-15T12:42:01.145Z,60.00
2023-02-15T12:44:38.256Z,56.33
2023-02-15T12:47:21.238Z,60.00
2023-02-15T12:50:19.148Z,59.67
2023-02-15T12:52:52.446Z,55.33
2023-02-15T12:55:32.273Z,62.67
2023-02-15T12:58:26.396Z,59.00
2023-02-15T13:01:22.396Z,64.33
2023-02-15T13:04:05.861Z,63.67
2023-02-15T13:06:37.652Z,61.00
2023-02-15T13:09:21.178Z,64.00
2023-02-15T13:11:51.214Z,62.33
2023-02-15T13:14:32.349Z,54.67
2023-02-15T13:17:07.761Z,62.00
2023-02-15T13:19:51.381Z,59.67
2023-02-15T13:22:43.293Z,53.67
2023-02-15T13:25:24.863Z,70.33
2023-02-15T13:28:03.043Z,60.00
2023-02-15T13:30:38.316Z,59.67
2023-02-15T13:33:31.900Z,62.67
2023-02-15T13:37:07.242Z,59.33
2023-02-15T13:39:47.403Z,61.67
2023-02-15T13:42:31.809Z,58.00
2023-02-15T13:46:02.979Z,60.00
2023-02-15T13:48:48.796Z,54.00
2023-02-15T13:51:41.828Z,61.33
2023-02-15T13:54:59.197Z,59.00
2023-02-15T13:57:52.580Z,60.33
2023-02-15T14:00:56.595Z,56.67
2023-02-15T14:03:57.872Z,64.00
2023-02-15T14:06:40.319Z,62.33
2023-02-15T14:10:04.539Z,59.00
2023-02-15T14:13:18.674Z,62.00
2023-02-15T14:16:38.708Z,55.67
2023-02-15T14:19:50.859Z,59.33
2023-02-15T14:22:44.414Z,60.33
2023-02-15T14:26:24.336Z,68.67
2023-02-15T14:29:24.398Z,67.67
2023-02-15T14:32:46.359Z,60.00
2023-02-15T14:35:29.997Z,63.00
2023-02-15T14:38:23.882Z,66.67
2023-02-15T14:41:08.742Z,60.33
2023-02-15T14:44:34.373Z,56.67
2023-02-15T14:47:23.733Z,55.67
2023-02-15T14:49:53.215Z,57.00
2023-02-15T14:52:22.795Z,55.67
2023-02-15T14:54:56.256Z,51.00
2023-02-15T14:57:28.792Z,52.67
2023-02-15T15:00:08.266Z,54.00
2023-02-15T15:02:51.142Z,54.67
2023-02-15T15:05:35.170Z,52.33
2023-02-15T15:08:06.967Z,60.00
2023-02-15T15:10:48.333Z,53.50
2023-02-15T15:13:32.821Z,59.67
2023-02-15T15:16:39.481Z,54.33
2023-02-15T15:19:53.715Z,50.50
2023-02-15T15:22:30.983Z,55.50
2023-02-15T15:25:13.194Z,63.33
2023-02-15T15:27:47.025Z,56.33
2023-02-15T15:30:19.328Z,59.00
2023-02-15T15:34:24.458Z,57.00
2023-02-15T15:37:29.537Z,63.33
2023-02-15T15:40:28.757Z,57.67
2023-02-15T15:43:37.501Z,53.00
2023-02-15T15:46:49.611Z,60.67
2023-02-15T15:49:23.227Z,52.50
2023-02-15T15:51:53.091Z,66.00
2023-02-15T15:54:25.854Z,65.33
2023-02-15T15:57:03.585Z,63.50
2023-02-15T15:59:36.230Z,64.00
2023-02-15T16:02:11.302Z,61.33
2023-02-15T16:04:40.712Z,61.50
2023-02-15T16:07:18.783Z,65.33
2023-02-15T16:10:08.204Z,67.00
2023-02-15T16:12:40.941Z,63.67
2023-02-15T16:15:45.781Z,68.00
2023-02-15T16:18:25.294Z,73.67
2023-02-15T16:21:01.949Z,43.00
2023-02-15T16:23:37.523Z,79.00
2023-02-15T16:26:28.298Z,79.67
2023-02-15T16:28:57.918Z,84.67
2023-02-15T16:31:27.668Z,88.00
2023-02-15T16:33:57.403Z,91.33
2023-02-15T16:36:29.922Z,101.67
2023-02-15T16:39:00.354Z,109.00
2023-02-15T16:41:31.886Z,112.50
2023-02-15T16:44:17.822Z,109.75
2023-02-15T16:46:55.028Z,92.67
2023-02-15T16:49:29.914Z,113.25
2023-02-15T16:52:09.664Z,131.75
2023-02-15T16:54:44.654Z,106.50
2023-02-15T16:57:30.911Z,107.25
2023-02-15T17:00:18.487Z,104.00
2023-02-15T17:03:25.337Z,118.50
2023-02-15T17:06:00.585Z,102.67
2023-02-15T17:08:38.155Z,112.50
2023-02-15T17:11:42.696Z,104.67
2023-02-15T17:14:19.096Z,110.25
2023-02-15T17:17:13.813Z,104.33
2023-02-15T17:19:55.328Z,104.33
2023-02-15T17:22:31.952Z,104.67
2023-02-15T17:25:06.591Z,120.00
2023-02-15T17:27:39.679Z,115.75
2023-02-15T17:30:33.778Z,109.00
2023-02-15T17:33:06.199Z,119.00
2023-02-15T17:35:35.344Z,131.00
2023-02-15T17:38:21.354Z,126.75
2023-02-15T17:40:51.006Z,126.00
2023-02-15T17:43:21.830Z,119.50
2023-02-15T17:45:53.592Z,125.00
2023-02-15T17:48:35.600Z,134.00
2023-02-15T17:51:12.623Z,132.50
2023-02-15T17:54:07.083Z,149.75
2023-02-15T17:56:39.820Z,138.75
2023-02-15T17:59:12.625Z,146.50
2023-02-15T18:02:09.434Z,134.25
2023-02-15T18:04:57.233Z,186.00
2023-02-15T18:07:46.437Z,236.00
2023-02-15T18:10:38.965Z,218.50
2023-02-15T18:13:08.869Z,146.00
2023-02-15T18:15:37.546Z,156.00
2023-02-15T18:18:13.285Z,139.25
2023-02-15T18:20:45.996Z,137.25
2023-02-15T18:23:20.365Z,158.75
2023-02-15T18:25:51.953Z,158.20
2023-02-15T18:28:23.826Z,161.50
2023-02-15T18:30:54.583Z,165.75
2023-02-15T18:33:41.491Z,156.50
2023-02-15T18:36:32.924Z,155.50
2023-02-15T18:39:08.922Z,147.00
2023-02-15T18:41:40.200Z,140.00
2023-02-15T18:44:13.349Z,176.50
2023-02-15T18:46:44.365Z,146.25
2023-02-15T18:49:15.183Z,145.50
2023-02-15T18:51:46.015Z,146.50
2023-02-15T18:54:26.128Z,154.25
2023-02-15T18:57:02.860Z,159.50
2023-02-15T18:59:36.039Z,138.50
2023-02-15T19:02:19.919Z,153.50
2023-02-15T19:04:50.903Z,163.75
2023-02-15T19:07:26.924Z,197.50
2023-02-15T19:09:59.964Z,181.67
2023-02-15T19:12:29.835Z,187.25
2023-02-15T19:14:59.861Z,187.25
2023-02-15T19:17:29.542Z,201.50
2023-02-15T19:20:00.040Z,197.25
2023-02-15T19:22:31.480Z,194.50
2023-02-15T19:25:08.113Z,189.00
2023-02-15T19:27:39.024Z,190.25
2023-02-15T19:30:30.120Z,190.50
2023-02-15T19:33:02.281Z,185.25
2023-02-15T19:35:35.919Z,191.75
2023-02-15T19:38:16.196Z,193.50
2023-02-15T19:40:48.670Z,191.00
2023-02-15T19:43:27.867Z,203.25
2023-02-15T19:45:57.478Z,205.25
2023-02-15T19:48:27.306Z,200.00
2023-02-15T19:50:57.257Z,199.25
2023-02-15T19:53:29.670Z,200.00
2023-02-15T19:56:01.050Z,166.25
2023-02-15T19:58:31.480Z,191.75
2023-02-15T20:01:03.302Z,165.50
2023-02-15T20:03:34.274Z,178.75
2023-02-15T20:06:03.067Z,203.00
2023-02-15T20:08:33.925Z,202.75
2023-02-15T20:11:09.680Z,211.25
2023-02-15T20:13:37.522Z,191.50
2023-02-15T20:16:09.894Z,175.00
2023-02-15T20:18:44.686Z,164.00
2023-02-15T20:21:17.267Z,160.75
2023-02-15T20:23:48.060Z,166.00
2023-02-15T20:26:19.893Z,165.75
2023-02-15T20:28:50.520Z,159.00
2023-02-15T20:31:21.989Z,176.50
2023-02-15T20:33:53.177Z,174.75
2023-02-15T20:36:24.825Z,172.50
2023-02-15T20:38:57.397Z,176.00
2023-02-15T20:41:37.649Z,95.00
2023-02-15T20:44:29.254Z,175.50
2023-02-15T20:47:01.647Z,178.75
2023-02-15T20:49:32.221Z,184.50
2023-02-15T20:52:03.906Z,202.50
2023-02-15T20:54:36.811Z,214.25
2023-02-15T20:57:12.058Z,163.25
2023-02-15T20:59:42.608Z,141.67
2023-02-15T21:02:23.990Z,194.25
2023-02-15T21:04:55.590Z,181.33
2023-02-15T21:07:26.218Z,195.50
2023-02-15T21:09:56.774Z,206.50
2023-02-15T21:12:27.477Z,182.50
2023-02-15T21:14:58.343Z,189.00
2023-02-15T21:17:28.874Z,191.00
2023-02-15T21:19:58.584Z,206.00
2023-02-15T21:22:29.244Z,207.75
2023-02-15T21:24:58.973Z,171.67
2023-02-15T21:27:30.084Z,181.25
2023-02-15T21:30:01.180Z,190.50
2023-02-15T21:32:31.848Z,183.00
2023-02-15T21:35:02.478Z,163.25
2023-02-15T21:37:36.438Z,196.25
2023-02-15T21:40:28.401Z,191.25
2023-02-15T21:43:18.353Z,200.75
2023-02-15T21:46:06.957Z,173.33
2023-02-15T21:48:37.500Z,190.25
2023-02-15T21:51:25.758Z,201.00
2023-02-15T21:53:56.301Z,195.00
2023-02-15T21:56:24.518Z,193.00
2023-02-15T21:58:55.056Z,178.25
2023-02-15T22:01:28.128Z,201.00
2023-02-15T22:03:59.902Z,127.33
2023-02-15T22:06:30.415Z,201.75
2023-02-15T22:09:00.934Z,201.25
2023-02-15T22:11:32.157Z,204.50
2023-02-15T22:14:02.672Z,200.00
2023-02-15T22:16:33.392Z,185.75
2023-02-15T22:19:01.261Z,212.00
2023-02-15T22:21:31.887Z,188.50
2023-02-15T22:24:02.516Z,167.75
2023-02-15T22:26:32.354Z,147.00
2023-02-15T22:29:02.930Z,149.75
2023-02-15T22:31:33.563Z,154.25
2023-02-15T22:34:04.146Z,147.25
2023-02-15T22:36:34.954Z,152.50
2023-02-15T22:39:04.774Z,177.33
2023-02-15T22:41:35.343Z,158.75
2023-02-15T22:44:05.159Z,148.67
2023-02-15T22:46:35.977Z,168.00
2023-02-15T22:49:06.572Z,169.00
2023-02-15T22:51:37.032Z,164.75
2023-02-15T22:54:08.538Z,185.00
2023-02-15T22:56:52.391Z,196.00
2023-02-15T22:59:34.225Z,187.75
2023-02-15T23:02:06.569Z,179.75
2023-02-15T23:04:37.039Z,154.75
2023-02-15T23:07:21.617Z,171.67
2023-02-15T23:09:52.071Z,180.25
2023-02-15T23:12:49.827Z,181.00
2023-02-15T23:15:20.378Z,193.25
2023-02-15T23:17:50.903Z,192.75
2023-02-15T23:20:20.494Z,186.00
2023-02-15T23:22:50.049Z,76.00
2023-02-15T23:25:24.534Z,182.00
2023-02-15T23:27:57.140Z,174.00
2023-02-15T23:30:28.023Z,153.75
2023-02-15T23:32:58.916Z,179.33
2023-02-15T23:35:28.635Z,132.33
2023-02-15T23:37:59.171Z,144.00
2023-02-15T23:40:47.555Z,137.00
2023-02-15T23:43:22.838Z,140.33
2023-02-15T23:45:52.540Z,134.67
2023-02-15T23:48:39.410Z,131.00
2023-02-15T23:51:11.542Z,118.67
2023-02-15T23:53:41.235Z,110.67
2023-02-15T23:56:15.505Z,114.00
2023-02-15T23:58:46.814Z,107.67
